createdAt,value
2023-04-17T00:01:47.752Z,8.80
2023-04-17T00:04:41.593Z,8.80
2023-04-17T00:07:28.911Z,8.80
2023-04-17T00:10:23.387Z,8.80
2023-04-17T00:13:17.439Z,8.80
2023-04-17T00:16:04.797Z,8.80
2023-04-17T00:18:58.376Z,8.80
2023-04-17T00:21:45.698Z,8.80
2023-04-17T00:24:39.452Z,8.70
2023-04-17T00:27:26.528Z,8.70
2023-04-17T00:30:20.381Z,8.70
2023-04-17T00:33:07.503Z,8.70
2023-04-17T00:36:01.507Z,8.70
2023-04-17T00:38:48.640Z,8.70
2023-04-17T00:41:42.417Z,8.70
2023-04-17T00:44:36.431Z,8.70
2023-04-17T00:47:26.323Z,8.60
2023-04-17T00:50:20.505Z,8.60
2023-04-17T00:53:07.703Z,8.60
2023-04-17T00:56:02.480Z,8.60
2023-04-17T00:58:50.600Z,8.60
2023-04-17T01:01:44.595Z,8.70
2023-04-17T01:04:31.755Z,8.70
2023-04-17T01:07:25.489Z,8.70
2023-04-17T01:10:19.442Z,8.60
2023-04-17T01:13:07.796Z,8.60
2023-04-17T01:16:01.493Z,8.60
2023-04-17T01:18:55.498Z,8.50
2023-04-17T01:21:49.638Z,8.60
2023-04-17T01:24:43.484Z,8.60
2023-04-17T01:27:30.578Z,8.60
2023-04-17T01:30:24.567Z,8.60
2023-04-17T01:33:11.850Z,8.50
2023-04-17T01:36:05.552Z,8.50
2023-04-17T01:38:59.503Z,8.40
2023-04-17T01:41:53.540Z,8.40
2023-04-17T01:44:47.793Z,8.40
2023-04-17T01:47:35.276Z,8.50
2023-04-17T01:50:28.535Z,8.50
2023-04-17T01:53:15.744Z,8.40
2023-04-17T01:56:09.553Z,8.50
2023-04-17T01:58:56.719Z,8.50
2023-04-17T02:01:50.671Z,8.50
2023-04-17T02:04:37.888Z,8.50
2023-04-17T02:07:31.589Z,8.50
2023-04-17T02:10:25.607Z,8.50
2023-04-17T02:13:19.594Z,8.50
2023-04-17T02:16:07.669Z,8.50
2023-04-17T02:19:01.610Z,8.60
2023-04-17T02:21:55.592Z,8.60
2023-04-17T02:24:42.837Z,8.50
2023-04-17T02:27:36.848Z,8.50
2023-04-17T02:30:31.646Z,8.50
2023-04-17T02:33:25.606Z,8.50
2023-04-17T02:36:12.764Z,8.50
2023-04-17T02:39:06.602Z,8.50
2023-04-17T02:41:53.756Z,8.50
2023-04-17T02:44:47.634Z,8.50
2023-04-17T02:47:34.779Z,8.50
2023-04-17T02:50:28.670Z,8.50
2023-04-17T02:53:22.660Z,8.50
2023-04-17T02:56:37.616Z,8.50
2023-04-17T02:59:32.635Z,8.50
2023-04-17T03:02:23.162Z,8.50
2023-04-17T03:05:26.658Z,8.50
2023-04-17T03:08:13.750Z,8.50
2023-04-17T03:11:07.654Z,8.50
2023-04-17T03:13:54.727Z,8.50
2023-04-17T03:16:48.663Z,8.50
2023-04-17T03:19:35.960Z,8.40
2023-04-17T03:22:29.654Z,8.40
2023-04-17T03:25:16.895Z,8.50
2023-04-17T03:28:10.695Z,8.40
2023-04-17T03:31:05.728Z,8.40
2023-04-17T03:33:59.747Z,8.50
2023-04-17T03:36:46.980Z,8.40
2023-04-17T03:39:40.680Z,8.40
2023-04-17T03:42:34.780Z,8.40
2023-04-17T03:45:21.876Z,8.50
2023-04-17T03:48:15.768Z,8.50
2023-04-17T03:51:03.527Z,8.50
2023-04-17T03:53:56.737Z,8.50
2023-04-17T03:56:50.772Z,8.50
2023-04-17T03:59:44.741Z,8.40
2023-04-17T04:02:31.859Z,8.40
2023-04-17T04:05:25.896Z,8.40
2023-04-17T04:08:19.740Z,8.40
2023-04-17T04:11:06.839Z,8.40
2023-04-17T04:14:00.790Z,8.40
2023-04-17T04:16:55.031Z,8.40
2023-04-17T04:19:49.823Z,8.40
2023-04-17T04:22:43.982Z,8.40
2023-04-17T04:25:32.427Z,8.40
2023-04-17T04:28:25.751Z,8.40
2023-04-17T04:31:14.831Z,8.40
2023-04-17T04:34:08.813Z,8.50
2023-04-17T04:37:12.811Z,8.50
2023-04-17T04:40:08.796Z,8.50
2023-04-17T04:43:02.807Z,8.50
2023-04-17T04:45:49.928Z,8.40
2023-04-17T04:48:43.868Z,8.40
2023-04-17T04:51:39.156Z,8.40
2023-04-17T04:54:32.860Z,8.40
2023-04-17T04:57:20.118Z,8.40
2023-04-17T05:00:15.895Z,8.40
2023-04-17T05:03:03.142Z,8.50
2023-04-17T05:05:56.879Z,8.50
2023-04-17T05:08:51.901Z,8.50
2023-04-17T05:11:39.132Z,8.50
2023-04-17T05:14:32.914Z,8.50
2023-04-17T05:17:20.262Z,8.60
2023-04-17T05:20:15.913Z,8.60
2023-04-17T05:23:09.858Z,8.60
2023-04-17T05:26:03.897Z,8.60
2023-04-17T05:28:57.893Z,8.60
2023-04-17T05:31:51.944Z,8.60
2023-04-17T05:34:39.099Z,8.70
2023-04-17T05:37:32.892Z,8.80
2023-04-17T05:40:26.928Z,8.80
2023-04-17T05:43:14.060Z,8.70
2023-04-17T05:46:07.958Z,8.70
2023-04-17T05:48:55.138Z,8.70
2023-04-17T05:51:48.898Z,8.80
2023-04-17T05:54:36.189Z,8.90
2023-04-17T05:57:35.942Z,8.90
2023-04-17T06:00:29.940Z,8.90
2023-04-17T06:03:24.413Z,8.80
2023-04-17T06:06:18.950Z,8.90
2023-04-17T06:09:07.896Z,8.80
2023-04-17T06:12:02.070Z,8.90
2023-04-17T06:14:55.976Z,8.90
2023-04-17T06:17:43.012Z,8.90
2023-04-17T06:20:39.421Z,8.90
2023-04-17T06:23:33.965Z,8.90
2023-04-17T06:26:27.976Z,9.00
2023-04-17T06:29:22.299Z,8.90
2023-04-17T06:32:15.963Z,8.90
2023-04-17T06:35:03.324Z,8.80
2023-04-17T06:37:57.047Z,8.80
2023-04-17T06:40:52.584Z,8.80
2023-04-17T06:43:40.106Z,8.80
2023-04-17T06:46:34.129Z,8.80
2023-04-17T06:49:21.277Z,8.90
2023-04-17T06:52:15.313Z,8.90
2023-04-17T06:55:02.660Z,9.10
2023-04-17T06:57:56.014Z,9.10
2023-04-17T07:00:50.049Z,9.20
2023-04-17T07:03:39.139Z,9.30
2023-04-17T07:06:33.018Z,9.30
2023-04-17T07:09:20.461Z,9.30
2023-04-17T07:12:14.075Z,9.40
2023-04-17T07:15:01.561Z,9.40
2023-04-17T07:17:55.112Z,9.40
2023-04-17T07:20:42.205Z,9.40
2023-04-17T07:23:36.109Z,9.40
2023-04-17T07:26:23.257Z,9.30
2023-04-17T07:29:17.056Z,9.30
2023-04-17T07:32:11.357Z,9.40
2023-04-17T07:34:58.462Z,9.40
2023-04-17T07:37:52.112Z,9.40
2023-04-17T07:40:46.069Z,9.40
2023-04-17T07:43:40.113Z,9.50
2023-04-17T07:46:27.233Z,9.50
2023-04-17T07:49:21.146Z,9.50
2023-04-17T07:52:08.903Z,9.60
2023-04-17T07:55:03.131Z,9.60
2023-04-17T07:57:51.813Z,9.60
2023-04-17T08:00:46.229Z,9.70
2023-04-17T08:03:33.931Z,9.70
2023-04-17T08:06:28.186Z,9.80
2023-04-17T08:09:15.316Z,9.90
2023-04-17T08:12:09.224Z,9.90
2023-04-17T08:15:03.410Z,10.00
2023-04-17T08:17:50.593Z,10.00
2023-04-17T08:20:44.225Z,10.10
2023-04-17T08:23:38.232Z,10.20
2023-04-17T08:26:25.350Z,10.20
2023-04-17T08:29:19.208Z,10.40
2023-04-17T08:32:14.817Z,10.50
2023-04-17T08:35:09.188Z,10.60
2023-04-17T08:37:58.884Z,10.60
2023-04-17T08:40:58.190Z,10.70
2023-04-17T08:43:56.175Z,10.70
2023-04-17T08:46:50.230Z,10.80
2023-04-17T08:49:37.707Z,10.90
2023-04-17T08:52:31.186Z,11.00
2023-04-17T08:55:24.912Z,11.00
2023-04-17T08:58:20.239Z,11.20
2023-04-17T09:01:10.983Z,11.30
2023-04-17T09:04:04.474Z,11.30
2023-04-17T09:06:54.411Z,11.40
2023-04-17T09:10:01.221Z,11.30
2023-04-17T09:13:00.316Z,11.30
2023-04-17T09:16:10.452Z,11.40
2023-04-17T09:19:14.565Z,11.80
2023-04-17T09:22:26.253Z,12.20
2023-04-17T09:25:29.231Z,12.60
2023-04-17T09:28:16.692Z,12.90
2023-04-17T09:31:12.517Z,13.10
2023-04-17T09:34:01.894Z,13.30
2023-04-17T09:37:01.345Z,13.30
2023-04-17T09:40:09.332Z,13.20
2023-04-17T09:43:09.470Z,13.10
2023-04-17T09:46:04.352Z,13.00
2023-04-17T09:48:51.762Z,12.80
2023-04-17T09:51:46.299Z,12.70
2023-04-17T09:54:44.296Z,12.50
2023-04-17T09:57:31.832Z,12.40
2023-04-17T10:00:27.440Z,12.30
2023-04-17T10:03:24.589Z,12.10
2023-04-17T10:06:13.102Z,12.00
2023-04-17T10:09:07.374Z,11.90
2023-04-17T10:12:03.569Z,11.90
2023-04-17T10:14:59.372Z,11.90
2023-04-17T10:17:46.675Z,12.10
2023-04-17T10:20:42.353Z,12.30
2023-04-17T10:23:34.081Z,12.60
2023-04-17T10:26:34.319Z,13.00
2023-04-17T10:29:57.786Z,13.30
2023-04-17T10:32:53.443Z,13.60
2023-04-17T10:35:40.692Z,13.60
2023-04-17T10:38:42.400Z,13.70
2023-04-17T10:41:32.379Z,13.80
2023-04-17T10:44:26.446Z,14.00
2023-04-17T10:47:16.433Z,14.10
2023-04-17T10:50:14.496Z,14.10
2023-04-17T10:53:01.700Z,14.20
2023-04-17T10:55:58.525Z,14.20
2023-04-17T10:59:12.768Z,14.20
2023-04-17T11:02:01.487Z,14.00
2023-04-17T11:04:55.406Z,13.90
2023-04-17T11:07:50.369Z,13.90
2023-04-17T11:10:44.482Z,14.00
2023-04-17T11:13:41.413Z,14.20
2023-04-17T11:16:28.876Z,14.30
2023-04-17T11:19:27.438Z,14.30
2023-04-17T11:22:23.719Z,14.40
2023-04-17T11:25:20.690Z,14.70
2023-04-17T11:28:14.578Z,15.00
2023-04-17T11:31:08.504Z,15.10
2023-04-17T11:33:55.705Z,15.30
2023-04-17T11:36:56.471Z,15.40
2023-04-17T11:39:50.418Z,15.60
2023-04-17T11:42:45.147Z,15.70
2023-04-17T11:45:40.516Z,15.90
2023-04-17T11:48:31.978Z,15.90
2023-04-17T11:51:26.817Z,16.00
2023-04-17T11:54:27.608Z,16.10
2023-04-17T11:57:21.528Z,16.30
2023-04-17T12:00:20.509Z,16.50
2023-04-17T12:03:41.659Z,16.70
2023-04-17T12:06:44.509Z,17.00
2023-04-17T12:09:35.528Z,17.00
2023-04-17T12:12:29.612Z,17.00
2023-04-17T12:15:23.566Z,17.10
2023-04-17T12:18:10.884Z,16.90
2023-04-17T12:21:04.565Z,16.90
2023-04-17T12:23:52.096Z,17.00
2023-04-17T12:26:55.577Z,17.00
2023-04-17T12:29:44.825Z,17.00
2023-04-17T12:32:38.595Z,16.90
2023-04-17T12:35:32.617Z,16.90
2023-04-17T12:38:19.842Z,16.60
2023-04-17T12:41:13.554Z,16.50
2023-04-17T12:44:09.635Z,16.80
2023-04-17T12:46:56.843Z,16.90
2023-04-17T12:49:50.649Z,16.90
2023-04-17T12:52:39.061Z,16.80
2023-04-17T12:55:32.643Z,16.80
2023-04-17T12:58:19.809Z,16.70
2023-04-17T13:01:13.689Z,16.80
2023-04-17T13:04:00.996Z,17.30
2023-04-17T13:06:54.649Z,17.60
2023-04-17T13:09:41.827Z,17.80
2023-04-17T13:12:35.613Z,17.80
2023-04-17T13:15:29.639Z,17.90
2023-04-17T13:18:23.659Z,17.70
2023-04-17T13:21:17.604Z,17.60
2023-04-17T13:24:05.171Z,17.60
2023-04-17T13:26:58.691Z,17.40
2023-04-17T13:29:45.808Z,17.40
2023-04-17T13:32:41.710Z,17.60
2023-04-17T13:35:35.676Z,17.50
2023-04-17T13:38:30.068Z,17.40
2023-04-17T13:41:17.192Z,17.60
2023-04-17T13:44:10.673Z,18.00
2023-04-17T13:46:57.974Z,18.50
2023-04-17T13:49:51.618Z,18.50
2023-04-17T13:52:38.703Z,18.00
2023-04-17T13:55:32.649Z,17.40
2023-04-17T13:58:26.696Z,16.90
2023-04-17T14:01:20.704Z,16.90
2023-04-17T14:04:14.733Z,17.20
2023-04-17T14:07:02.282Z,17.60
2023-04-17T14:09:56.958Z,17.70
2023-04-17T14:12:44.114Z,18.00
2023-04-17T14:15:38.679Z,18.20
2023-04-17T14:18:25.848Z,17.80
2023-04-17T14:21:19.695Z,17.30
2023-04-17T14:24:13.808Z,17.00
2023-04-17T14:27:08.714Z,17.00
2023-04-17T14:29:55.814Z,17.10
2023-04-17T14:32:57.838Z,17.20
2023-04-17T14:35:51.797Z,17.00
2023-04-17T14:38:45.777Z,16.70
2023-04-17T14:41:40.774Z,16.90
2023-04-17T14:44:27.918Z,17.20
2023-04-17T14:47:21.836Z,17.10
2023-04-17T14:50:09.622Z,16.70
2023-04-17T14:53:03.764Z,16.40
2023-04-17T14:55:57.766Z,16.70
2023-04-17T14:58:44.915Z,17.30
2023-04-17T15:01:38.717Z,17.50
2023-04-17T15:04:32.887Z,17.60
2023-04-17T15:07:27.058Z,17.30
2023-04-17T15:10:15.118Z,17.00
2023-04-17T15:13:09.766Z,16.60
2023-04-17T15:16:03.893Z,16.40
2023-04-17T15:18:51.347Z,16.30
2023-04-17T15:21:44.843Z,16.70
2023-04-17T15:24:31.951Z,17.00
2023-04-17T15:27:26.839Z,17.20
2023-04-17T15:30:14.611Z,17.30
2023-04-17T15:33:09.895Z,17.30
2023-04-17T15:35:59.234Z,17.40
2023-04-17T15:38:52.913Z,17.50
2023-04-17T15:41:40.698Z,17.70
2023-04-17T15:44:35.854Z,17.70
2023-04-17T15:47:23.227Z,17.80
2023-04-17T15:50:16.894Z,17.70
2023-04-17T15:53:10.882Z,17.50
2023-04-17T15:55:58.060Z,17.20
2023-04-17T15:58:51.853Z,17.00
2023-04-17T16:01:38.973Z,16.70
2023-04-17T16:04:33.089Z,16.50
2023-04-17T16:07:26.988Z,16.10
2023-04-17T16:10:20.857Z,15.80
2023-04-17T16:13:08.455Z,15.60
2023-04-17T16:16:01.969Z,15.50
2023-04-17T16:18:49.122Z,15.50
2023-04-17T16:21:43.887Z,15.60
2023-04-17T16:24:31.172Z,15.60
2023-04-17T16:27:24.982Z,15.50
2023-04-17T16:30:18.947Z,15.40
2023-04-17T16:33:06.057Z,15.40
2023-04-17T16:35:59.920Z,15.30
2023-04-17T16:38:53.567Z,15.20
2023-04-17T16:41:47.050Z,15.10
2023-04-17T16:44:34.221Z,15.00
2023-04-17T16:47:28.048Z,15.00
2023-04-17T16:50:15.246Z,14.90
2023-04-17T16:53:08.949Z,14.90
2023-04-17T16:55:57.082Z,14.80
2023-04-17T16:58:50.955Z,14.80
2023-04-17T17:01:38.132Z,14.70
2023-04-17T17:04:32.067Z,14.70
2023-04-17T17:07:19.226Z,14.70
2023-04-17T17:10:13.957Z,14.60
2023-04-17T17:13:08.011Z,14.60
2023-04-17T17:15:55.108Z,14.60
2023-04-17T17:18:49.000Z,14.60
2023-04-17T17:21:36.353Z,14.60
2023-04-17T17:24:30.264Z,14.60
2023-04-17T17:27:17.362Z,14.50
2023-04-17T17:30:11.985Z,14.50
2023-04-17T17:32:59.109Z,14.40
2023-04-17T17:35:53.013Z,14.30
2023-04-17T17:38:40.642Z,14.30
2023-04-17T17:41:34.131Z,14.20
2023-04-17T17:44:21.385Z,14.10
2023-04-17T17:47:15.070Z,14.10
2023-04-17T17:50:09.075Z,14.00
2023-04-17T17:52:58.761Z,13.90
2023-04-17T17:56:02.085Z,13.80
2023-04-17T17:58:50.824Z,13.80
2023-04-17T18:01:44.152Z,13.70
2023-04-17T18:04:31.365Z,13.60
2023-04-17T18:07:25.080Z,13.60
2023-04-17T18:10:12.324Z,13.50
2023-04-17T18:13:06.348Z,13.50
2023-04-17T18:15:53.571Z,13.40
2023-04-17T18:18:47.080Z,13.30
2023-04-17T18:21:34.340Z,13.30
2023-04-17T18:24:28.150Z,13.20
2023-04-17T18:27:22.099Z,13.10
2023-04-17T18:30:16.081Z,13.10
2023-04-17T18:33:03.276Z,13.00
2023-04-17T18:35:57.059Z,12.90
2023-04-17T18:38:44.230Z,12.90
2023-04-17T18:41:38.148Z,12.80
2023-04-17T18:44:25.295Z,12.70
2023-04-17T18:47:19.094Z,12.60
2023-04-17T18:50:07.035Z,12.60
2023-04-17T18:53:01.112Z,12.50
2023-04-17T18:55:48.132Z,12.40
2023-04-17T18:58:42.155Z,12.40
2023-04-17T19:01:29.313Z,12.30
2023-04-17T19:04:23.159Z,12.20
2023-04-17T19:07:10.274Z,12.20
2023-04-17T19:10:04.211Z,12.10
2023-04-17T19:12:58.182Z,12.00
2023-04-17T19:15:45.254Z,11.90
2023-04-17T19:18:39.150Z,11.90
2023-04-17T19:21:33.150Z,11.80
2023-04-17T19:24:20.434Z,11.80
2023-04-17T19:27:14.219Z,11.70
2023-04-17T19:30:01.255Z,11.70
2023-04-17T19:32:55.196Z,11.60
2023-04-17T19:35:49.204Z,11.60
2023-04-17T19:38:43.208Z,11.50
2023-04-17T19:41:30.262Z,11.40
2023-04-17T19:44:25.956Z,11.40
2023-04-17T19:47:14.498Z,11.30
2023-04-17T19:50:08.393Z,11.30
2023-04-17T19:52:57.060Z,11.30
2023-04-17T19:55:50.273Z,11.20
2023-04-17T19:58:38.137Z,11.20
2023-04-17T20:01:31.338Z,11.10
2023-04-17T20:04:18.705Z,11.10
2023-04-17T20:07:12.311Z,11.10
2023-04-17T20:10:06.276Z,11.00
2023-04-17T20:12:53.368Z,10.90
2023-04-17T20:15:47.381Z,10.90
2023-04-17T20:18:37.008Z,10.80
2023-04-17T20:21:31.259Z,10.80
2023-04-17T20:24:18.432Z,10.80
2023-04-17T20:27:12.290Z,10.70
2023-04-17T20:29:59.533Z,10.70
2023-04-17T20:32:54.368Z,10.60
2023-04-17T20:35:49.333Z,10.60
2023-04-17T20:38:43.301Z,10.60
2023-04-17T20:41:39.350Z,10.60
2023-04-17T20:44:26.852Z,10.50
2023-04-17T20:47:20.357Z,10.40
2023-04-17T20:50:15.549Z,10.40
2023-04-17T20:53:09.353Z,10.30
2023-04-17T20:55:57.907Z,10.30
2023-04-17T20:58:52.377Z,10.30
2023-04-17T21:01:39.525Z,10.20
2023-04-17T21:04:33.316Z,10.20
2023-04-17T21:07:27.385Z,10.10
2023-04-17T21:10:14.525Z,10.10
2023-04-17T21:13:08.344Z,10.00
2023-04-17T21:16:02.438Z,10.00
2023-04-17T21:18:49.548Z,10.00
2023-04-17T21:21:43.405Z,10.00
2023-04-17T21:24:30.598Z,9.90
2023-04-17T21:27:24.366Z,9.90
2023-04-17T21:30:11.661Z,9.90
2023-04-17T21:33:05.453Z,9.90
2023-04-17T21:35:59.460Z,9.80
2023-04-17T21:38:46.548Z,9.80
2023-04-17T21:41:40.373Z,9.80
2023-04-17T21:44:34.357Z,9.70
2023-04-17T21:47:21.551Z,9.70
2023-04-17T21:50:16.374Z,9.70
2023-04-17T21:53:03.527Z,9.60
2023-04-17T21:55:57.383Z,9.60
2023-04-17T21:58:51.407Z,9.60
2023-04-17T22:01:38.587Z,9.60
2023-04-17T22:04:33.494Z,9.50
2023-04-17T22:07:21.612Z,9.50
2023-04-17T22:10:16.436Z,9.50
2023-04-17T22:13:03.840Z,9.50
2023-04-17T22:15:58.566Z,9.50
2023-04-17T22:18:45.771Z,9.40
2023-04-17T22:21:39.529Z,9.40
2023-04-17T22:24:26.620Z,9.40
2023-04-17T22:27:20.522Z,9.40
2023-04-17T22:30:14.510Z,9.30
2023-04-17T22:33:08.531Z,9.30
2023-04-17T22:36:02.708Z,9.30
2023-04-17T22:38:49.902Z,9.30
2023-04-17T22:41:43.472Z,9.30
2023-04-17T22:44:30.640Z,9.20
2023-04-17T22:47:24.552Z,9.20
2023-04-17T22:50:13.778Z,9.20
2023-04-17T22:53:07.535Z,9.20
2023-04-17T22:56:09.558Z,9.10
2023-04-17T22:58:56.576Z,9.10
2023-04-17T23:01:50.551Z,9.10
2023-04-17T23:04:37.856Z,9.10
2023-04-17T23:07:31.554Z,9.00
2023-04-17T23:10:26.839Z,9.00
2023-04-17T23:13:20.557Z,9.00
2023-04-17T23:16:07.938Z,9.00
2023-04-17T23:19:01.633Z,8.90
2023-04-17T23:21:55.528Z,8.90
2023-04-17T23:24:42.680Z,8.90
2023-04-17T23:27:37.084Z,8.80
2023-04-17T23:30:24.260Z,8.80
2023-04-17T23:33:17.576Z,8.80
2023-04-17T23:36:04.913Z,8.80
2023-04-17T23:38:58.676Z,8.70
2023-04-17T23:41:52.634Z,8.70
2023-04-17T23:44:46.890Z,8.70
2023-04-17T23:47:34.306Z,8.70
2023-04-17T23:50:27.650Z,8.60
2023-04-17T23:53:14.829Z,8.60
2023-04-17T23:56:08.627Z,8.60
2023-04-17T23:58:56.563Z,8.50
